createdAt,value
2018-04-19T00:00:43.177Z,11.47
2018-04-19T00:03:10.115Z,11.20
2018-04-19T00:05:36.974Z,10.93
2018-04-19T00:08:03.950Z,10.37
2018-04-19T00:10:30.805Z,10.90
2018-04-19T00:12:57.737Z,12.00
2018-04-19T00:15:24.662Z,13.03
2018-04-19T00:17:51.606Z,12.10
2018-04-19T00:20:18.496Z,12.37
2018-04-19T00:22:45.367Z,12.60
2018-04-19T00:25:12.325Z,13.20
2018-04-19T00:27:39.223Z,12.20
2018-04-19T00:30:06.168Z,12.90
2018-04-19T00:32:33.048Z,13.07
2018-04-19T00:35:00.725Z,13.53
2018-04-19T00:37:27.666Z,11.93
2018-04-19T00:39:54.546Z,13.50
2018-04-19T00:42:21.470Z,13.53
2018-04-19T00:44:48.342Z,13.30
2018-04-19T00:47:15.266Z,12.17
2018-04-19T00:49:42.211Z,12.00
2018-04-19T00:52:09.164Z,12.23
2018-04-19T00:54:36.093Z,13.67
2018-04-19T00:57:03.053Z,11.47
2018-04-19T00:59:29.904Z,11.80
2018-04-19T01:01:56.836Z,11.50
2018-04-19T01:04:23.780Z,11.33
2018-04-19T01:06:50.710Z,11.83
2018-04-19T01:09:18.377Z,14.80
2018-04-19T01:11:45.278Z,11.43
2018-04-19T01:14:12.200Z,11.73
2018-04-19T01:16:39.177Z,11.80
2018-04-19T01:19:06.155Z,11.77
2018-04-19T01:21:33.838Z,12.90
2018-04-19T01:24:00.776Z,12.80
2018-04-19T01:26:27.646Z,11.73
2018-04-19T01:28:54.572Z,11.07
2018-04-19T01:31:21.518Z,12.13
2018-04-19T01:33:48.393Z,11.30
2018-04-19T01:36:26.355Z,12.57
2018-04-19T01:38:53.306Z,11.40
2018-04-19T01:41:20.983Z,10.83
2018-04-19T01:43:47.982Z,11.50
2018-04-19T01:46:14.847Z,10.97
2018-04-19T01:48:41.762Z,12.60
2018-04-19T01:51:08.687Z,10.40
2018-04-19T01:53:35.625Z,12.00
2018-04-19T01:56:02.605Z,13.10
2018-04-19T01:58:29.527Z,14.03
2018-04-19T02:00:56.515Z,12.37
2018-04-19T02:03:23.450Z,11.83
2018-04-19T02:05:50.377Z,12.10
2018-04-19T02:08:17.302Z,12.07
2018-04-19T02:10:44.222Z,13.73
2018-04-19T02:13:11.093Z,13.20
2018-04-19T02:15:38.086Z,12.50
2018-04-19T02:18:05.023Z,12.93
2018-04-19T02:20:31.901Z,15.53
2018-04-19T02:22:59.578Z,12.97
2018-04-19T02:25:26.429Z,12.70
2018-04-19T02:27:53.353Z,13.47
2018-04-19T02:30:20.265Z,13.00
2018-04-19T02:32:47.228Z,13.20
2018-04-19T02:35:14.093Z,14.80
2018-04-19T02:37:41.001Z,14.53
2018-04-19T02:40:07.863Z,15.10
2018-04-19T02:42:34.804Z,13.87
2018-04-19T02:45:02.421Z,17.63
2018-04-19T02:47:29.281Z,14.70
2018-04-19T02:49:56.198Z,14.70
2018-04-19T02:52:23.058Z,13.97
2018-04-19T02:54:49.982Z,14.63
2018-04-19T02:57:16.922Z,16.50
2018-04-19T02:59:43.853Z,14.00
2018-04-19T03:02:11.475Z,16.57
2018-04-19T03:04:38.449Z,16.03
2018-04-19T03:07:06.124Z,14.97
2018-04-19T03:09:33.050Z,14.37
2018-04-19T03:11:59.980Z,16.17
2018-04-19T03:14:26.913Z,15.97
2018-04-19T03:16:53.969Z,15.00
2018-04-19T03:19:20.834Z,14.80
2018-04-19T03:21:48.509Z,15.60
2018-04-19T03:24:16.179Z,13.97
2018-04-19T03:26:43.102Z,16.63
2018-04-19T03:29:09.973Z,14.53
2018-04-19T03:31:36.995Z,13.53
2018-04-19T03:34:03.878Z,13.90
2018-04-19T03:36:30.823Z,16.60
2018-04-19T03:38:57.686Z,14.37
2018-04-19T03:41:24.554Z,14.70
2018-04-19T03:43:51.541Z,13.70
2018-04-19T03:46:19.214Z,12.87
2018-04-19T03:48:46.157Z,13.40
2018-04-19T03:51:13.045Z,12.70
2018-04-19T03:53:39.990Z,13.50
2018-04-19T03:56:06.857Z,13.77
2018-04-19T03:58:33.784Z,14.60
2018-04-19T04:01:00.760Z,12.50
2018-04-19T04:03:27.662Z,13.67
2018-04-19T04:05:54.601Z,13.27
2018-04-19T04:08:21.470Z,13.27
2018-04-19T04:10:48.399Z,13.10
2018-04-19T04:13:15.277Z,12.77
2018-04-19T04:15:43.222Z,13.20
2018-04-19T04:18:22.119Z,12.83
2018-04-19T04:21:01.198Z,13.47
2018-04-19T04:23:52.350Z,13.67
2018-04-19T04:26:26.252Z,13.93
2018-04-19T04:28:53.210Z,15.17
2018-04-19T04:31:20.175Z,14.23
2018-04-19T04:33:47.037Z,14.83
2018-04-19T04:36:28.191Z,14.00
2018-04-19T04:39:09.258Z,14.17
2018-04-19T04:41:36.582Z,13.53
2018-04-19T04:44:03.481Z,13.33
2018-04-19T04:46:30.362Z,13.67
2018-04-19T04:48:57.290Z,12.97
2018-04-19T04:51:24.368Z,15.10
2018-04-19T04:53:51.262Z,15.33
2018-04-19T04:56:23.786Z,15.00
2018-04-19T04:58:53.118Z,15.53
2018-04-19T05:01:32.763Z,14.70
2018-04-19T05:04:04.343Z,13.80
2018-04-19T05:06:31.636Z,13.97
2018-04-19T05:09:05.717Z,14.07
2018-04-19T05:11:37.290Z,13.77
2018-04-19T05:14:11.062Z,14.23
2018-04-19T05:16:40.994Z,14.97
2018-04-19T05:19:11.062Z,16.07
2018-04-19T05:21:41.326Z,13.57
2018-04-19T05:24:08.666Z,14.60
2018-04-19T05:26:42.296Z,15.60
2018-04-19T05:29:09.698Z,18.13
2018-04-19T05:31:36.681Z,14.80
2018-04-19T05:34:05.943Z,15.53
2018-04-19T05:36:34.705Z,15.43
2018-04-19T05:39:09.739Z,14.83
2018-04-19T05:41:39.185Z,15.13
2018-04-19T05:44:07.437Z,15.13
2018-04-19T05:46:34.501Z,15.20
2018-04-19T05:49:02.498Z,15.70
2018-04-19T05:51:30.090Z,15.17
2018-04-19T05:53:57.076Z,15.77
2018-04-19T05:56:23.946Z,16.43
2018-04-19T05:58:50.948Z,14.77
2018-04-19T06:01:17.869Z,14.50
2018-04-19T06:03:44.897Z,15.80
2018-04-19T06:06:11.776Z,16.67
2018-04-19T06:08:38.700Z,18.50
2018-04-19T06:11:05.685Z,18.10
2018-04-19T06:13:32.543Z,14.83
2018-04-19T06:15:59.539Z,16.17
2018-04-19T06:18:26.402Z,15.77
2018-04-19T06:20:53.376Z,16.57
2018-04-19T06:23:20.314Z,16.13
2018-04-19T06:25:47.302Z,15.07
2018-04-19T06:28:15.083Z,16.40
2018-04-19T06:30:41.956Z,14.50
2018-04-19T06:33:08.825Z,14.60
2018-04-19T06:35:35.752Z,13.00
2018-04-19T06:38:02.692Z,14.43
2018-04-19T06:40:29.558Z,14.63
2018-04-19T06:42:56.501Z,14.40
2018-04-19T06:45:23.590Z,14.80
2018-04-19T06:47:51.321Z,14.63
2018-04-19T06:50:18.186Z,15.70
2018-04-19T06:52:45.054Z,14.67
2018-04-19T06:55:12.721Z,15.23
2018-04-19T06:57:39.582Z,14.70
2018-04-19T07:00:06.586Z,13.43
2018-04-19T07:02:34.266Z,14.13
2018-04-19T07:05:01.140Z,13.53
2018-04-19T07:07:28.058Z,14.40
2018-04-19T07:09:54.939Z,13.40
2018-04-19T07:12:21.878Z,14.67
2018-04-19T07:14:48.758Z,12.27
2018-04-19T07:17:15.745Z,14.43
2018-04-19T07:19:43.371Z,12.60
2018-04-19T07:22:10.235Z,13.07
2018-04-19T07:24:38.033Z,11.90
2018-04-19T07:27:04.966Z,13.00
2018-04-19T07:29:31.902Z,12.83
2018-04-19T07:31:58.835Z,12.57
2018-04-19T07:34:25.769Z,11.67
2018-04-19T07:36:52.646Z,11.40
2018-04-19T07:39:19.565Z,13.73
2018-04-19T07:41:47.175Z,12.00
2018-04-19T07:44:14.098Z,12.33
2018-04-19T07:46:40.962Z,12.23
2018-04-19T07:49:07.894Z,13.47
2018-04-19T07:51:34.825Z,11.03
2018-04-19T07:54:02.465Z,11.77
2018-04-19T07:56:29.410Z,12.87
2018-04-19T07:58:56.336Z,11.27
2018-04-19T08:01:23.290Z,12.90
2018-04-19T08:03:50.291Z,11.90
2018-04-19T08:06:17.162Z,12.13
2018-04-19T08:08:44.099Z,12.07
2018-04-19T08:11:10.980Z,12.20
2018-04-19T08:13:37.839Z,12.83
2018-04-19T08:16:04.761Z,11.67
2018-04-19T08:18:31.697Z,10.90
2018-04-19T08:20:58.609Z,11.80
2018-04-19T08:23:25.527Z,12.23
2018-04-19T08:25:53.170Z,11.37
2018-04-19T08:28:20.090Z,14.13
2018-04-19T08:30:47.007Z,14.00
2018-04-19T08:33:13.878Z,12.30
2018-04-19T08:35:40.850Z,12.67
2018-04-19T08:38:07.803Z,11.60
2018-04-19T08:40:34.725Z,11.13
2018-04-19T08:43:01.664Z,11.20
2018-04-19T08:45:28.538Z,11.37
2018-04-19T08:47:55.389Z,10.70
2018-04-19T08:50:22.327Z,10.87
2018-04-19T08:52:49.183Z,10.27
2018-04-19T08:55:16.130Z,11.63
2018-04-19T08:57:42.989Z,10.90
2018-04-19T09:00:09.935Z,10.60
2018-04-19T09:02:36.794Z,9.30
2018-04-19T09:05:03.731Z,9.93
2018-04-19T09:07:31.329Z,10.60
2018-04-19T09:09:58.342Z,9.53
2018-04-19T09:12:26.010Z,10.40
2018-04-19T09:14:52.950Z,9.80
2018-04-19T09:17:19.901Z,10.70
2018-04-19T09:19:46.770Z,10.40
2018-04-19T09:22:13.793Z,9.97
2018-04-19T09:24:40.663Z,10.33
2018-04-19T09:27:07.667Z,9.30
2018-04-19T09:29:35.337Z,8.93
2018-04-19T09:32:03.027Z,9.13
2018-04-19T09:34:29.915Z,7.70
2018-04-19T09:36:56.868Z,7.87
2018-04-19T09:39:23.719Z,8.10
2018-04-19T09:41:50.660Z,8.40
2018-04-19T09:44:17.525Z,8.03
2018-04-19T09:46:45.128Z,7.60
2018-04-19T09:49:12.071Z,9.10
2018-04-19T09:51:38.938Z,7.63
2018-04-19T09:54:05.915Z,8.67
2018-04-19T09:56:32.894Z,7.63
2018-04-19T09:59:12.867Z,7.97
2018-04-19T10:01:45.907Z,7.40
2018-04-19T10:04:13.755Z,7.47
2018-04-19T10:06:40.812Z,8.80
2018-04-19T10:09:08.450Z,7.70
2018-04-19T10:11:35.405Z,8.03
2018-04-19T10:14:03.227Z,7.93
2018-04-19T10:16:30.106Z,7.67
2018-04-19T10:18:57.086Z,7.70
2018-04-19T10:21:24.839Z,7.77
2018-04-19T10:23:51.779Z,6.90
2018-04-19T10:26:18.656Z,6.90
2018-04-19T10:28:45.615Z,6.67
2018-04-19T10:31:12.543Z,6.83
2018-04-19T10:33:39.502Z,6.73
2018-04-19T10:36:06.377Z,7.67
2018-04-19T10:38:33.250Z,8.03
2018-04-19T10:41:00.257Z,7.20
2018-04-19T10:43:27.143Z,6.90
2018-04-19T10:45:54.074Z,7.23
2018-04-19T10:48:20.931Z,7.07
2018-04-19T10:50:47.850Z,8.10
2018-04-19T10:53:14.727Z,7.30
2018-04-19T10:55:41.677Z,7.40
2018-04-19T10:58:08.534Z,6.17
2018-04-19T11:00:35.421Z,5.93
2018-04-19T11:03:02.349Z,6.83
2018-04-19T11:05:29.298Z,6.47
2018-04-19T11:07:56.163Z,6.47
2018-04-19T11:10:23.088Z,5.70
2018-04-19T11:12:50.029Z,7.10
2018-04-19T11:15:16.973Z,6.30
2018-04-19T11:17:43.894Z,5.80
2018-04-19T11:20:10.877Z,7.30
2018-04-19T11:22:37.737Z,6.70
2018-04-19T11:25:04.678Z,6.53
2018-04-19T11:27:31.592Z,5.87
2018-04-19T11:29:59.206Z,6.37
2018-04-19T11:32:26.119Z,6.53
2018-04-19T11:34:53.047Z,7.00
2018-04-19T11:37:22.314Z,7.03
2018-04-19T11:39:49.242Z,7.13
2018-04-19T11:42:24.632Z,6.27
2018-04-19T11:45:04.422Z,6.20
2018-04-19T11:47:45.934Z,7.37
2018-04-19T11:50:13.493Z,6.73
2018-04-19T11:52:40.426Z,5.97
2018-04-19T11:55:07.294Z,6.10
2018-04-19T11:57:34.216Z,7.33
2018-04-19T12:00:01.082Z,6.17
2018-04-19T12:02:28.025Z,6.03
2018-04-19T12:04:54.886Z,6.93
2018-04-19T12:07:21.743Z,4.73
2018-04-19T12:09:49.421Z,5.37
2018-04-19T12:12:16.281Z,5.73
2018-04-19T12:15:01.185Z,6.33
2018-04-19T12:17:36.054Z,6.37
2018-04-19T12:20:05.224Z,4.67
2018-04-19T12:22:32.168Z,5.80
2018-04-19T12:24:59.040Z,5.40
2018-04-19T12:27:28.567Z,7.53
2018-04-19T12:29:58.097Z,6.03
2018-04-19T12:32:26.842Z,5.63
2018-04-19T12:37:39.137Z,5.10
2018-04-19T12:40:08.764Z,4.77
2018-04-19T12:42:36.459Z,5.10
2018-04-19T12:45:06.363Z,4.97
2018-04-19T12:47:33.965Z,4.80
2018-04-19T12:50:03.526Z,4.70
2018-04-19T12:52:32.432Z,4.17
2018-04-19T12:54:59.419Z,4.77
2018-04-19T12:57:29.118Z,4.47
2018-04-19T12:59:55.969Z,6.27
2018-04-19T13:02:26.232Z,4.80
2018-04-19T13:04:53.270Z,5.70
2018-04-19T13:07:21.121Z,5.73
2018-04-19T13:09:49.022Z,3.83
2018-04-19T13:12:22.220Z,5.10
2018-04-19T13:14:49.319Z,4.10
2018-04-19T13:17:16.182Z,5.13
2018-04-19T13:19:49.631Z,4.40
2018-04-19T13:22:17.759Z,3.93
2018-04-19T13:24:54.566Z,4.50
2018-04-19T13:27:22.274Z,4.90
2018-04-19T13:29:57.383Z,5.57
2018-04-19T13:35:07.992Z,3.93
2018-04-19T13:37:36.011Z,4.83
2018-04-19T13:40:03.000Z,4.13
2018-04-19T13:42:30.655Z,3.83
2018-04-19T13:44:58.423Z,4.97
2018-04-19T13:47:25.291Z,4.80
2018-04-19T13:50:02.923Z,4.37
2018-04-19T13:52:42.359Z,3.53
2018-04-19T13:55:13.069Z,3.60
2018-04-19T13:57:41.978Z,3.80
2018-04-19T14:00:11.176Z,4.80
2018-04-19T14:02:47.313Z,4.03
2018-04-19T14:05:14.399Z,3.33
2018-04-19T14:07:41.358Z,3.57
2018-04-19T14:10:09.546Z,3.50
2018-04-19T14:12:36.953Z,4.53
2018-04-19T14:15:03.970Z,3.63
2018-04-19T14:17:35.291Z,4.13
2018-04-19T14:20:03.335Z,3.30
2018-04-19T14:25:13.849Z,3.97
2018-04-19T14:27:48.314Z,3.50
2018-04-19T14:30:15.699Z,2.70
2018-04-19T14:32:56.266Z,3.30
2018-04-19T14:35:23.561Z,3.37
2018-04-19T14:37:50.479Z,2.77
2018-04-19T14:40:19.658Z,3.03
2018-04-19T14:42:47.453Z,2.97
2018-04-19T14:45:27.404Z,3.80
2018-04-19T14:47:55.034Z,3.50
2018-04-19T14:50:31.469Z,3.80
2018-04-19T14:53:00.881Z,5.03
2018-04-19T14:58:17.999Z,3.73
2018-04-19T15:00:44.907Z,4.20
2018-04-19T15:03:13.822Z,3.77
2018-04-19T15:05:50.130Z,3.97
2018-04-19T15:08:29.107Z,5.30
2018-04-19T15:10:59.571Z,4.40
2018-04-19T15:13:26.924Z,3.57
2018-04-19T15:15:57.408Z,3.60
2018-04-19T15:18:26.818Z,4.00
2018-04-19T15:20:53.758Z,3.20
2018-04-19T15:23:21.363Z,3.37
2018-04-19T15:25:55.696Z,3.33
2018-04-19T15:28:22.705Z,3.43
2018-04-19T15:30:52.182Z,3.40
2018-04-19T15:33:23.638Z,3.80
2018-04-19T15:35:51.417Z,5.20
2018-04-19T15:38:18.346Z,3.43
2018-04-19T15:40:54.424Z,6.27
2018-04-19T15:43:24.182Z,4.40
2018-04-19T15:46:01.580Z,4.17
2018-04-19T15:48:28.486Z,3.20
2018-04-19T15:50:55.430Z,6.03
2018-04-19T15:53:23.049Z,3.90
2018-04-19T15:55:51.145Z,3.33
2018-04-19T15:58:18.648Z,5.60
2018-04-19T16:00:46.273Z,4.93
2018-04-19T16:03:16.986Z,3.40
2018-04-19T16:05:45.933Z,3.57
2018-04-19T16:08:12.883Z,5.37
2018-04-19T16:10:39.767Z,3.40
2018-04-19T16:13:06.630Z,3.77
2018-04-19T16:15:33.849Z,8.50
2018-04-19T16:18:00.830Z,3.47
2018-04-19T16:20:28.097Z,4.20
2018-04-19T16:22:56.047Z,3.50
2018-04-19T16:25:22.983Z,3.57
2018-04-19T16:27:49.958Z,3.33
2018-04-19T16:30:16.957Z,6.10
2018-04-19T16:32:43.809Z,3.70
2018-04-19T16:35:10.890Z,5.83
2018-04-19T16:37:37.757Z,3.20
2018-04-19T16:40:05.454Z,3.40
2018-04-19T16:42:32.367Z,6.17
2018-04-19T16:45:01.310Z,7.97
2018-04-19T16:47:29.079Z,5.57
2018-04-19T16:49:58.849Z,5.97
2018-04-19T16:52:29.282Z,3.40
2018-04-19T16:55:00.776Z,9.53
2018-04-19T16:57:28.954Z,3.53
2018-04-19T16:59:56.890Z,4.13
2018-04-19T17:02:24.325Z,3.90
2018-04-19T17:04:51.270Z,3.47
2018-04-19T17:07:19.146Z,3.70
2018-04-19T17:09:46.083Z,4.43
2018-04-19T17:12:13.089Z,3.30
2018-04-19T17:14:40.066Z,3.80
2018-04-19T17:17:07.089Z,3.40
2018-04-19T17:19:33.956Z,3.00
2018-04-19T17:22:01.574Z,4.60
2018-04-19T17:24:28.562Z,3.50
2018-04-19T17:26:56.307Z,5.83
2018-04-19T17:29:23.242Z,3.57
2018-04-19T17:31:50.173Z,3.20
2018-04-19T17:34:17.050Z,5.13
2018-04-19T17:36:43.997Z,3.77
2018-04-19T17:39:10.885Z,3.63
2018-04-19T17:41:37.837Z,4.13
2018-04-19T17:44:04.778Z,4.30
2018-04-19T17:46:31.641Z,3.20
2018-04-19T17:48:58.523Z,3.23
2018-04-19T17:51:25.457Z,5.80
2018-04-19T17:53:52.373Z,3.83
2018-04-19T17:56:19.297Z,5.57
2018-04-19T17:58:46.898Z,3.07
2018-04-19T18:01:13.825Z,4.63
2018-04-19T18:03:40.674Z,3.07
2018-04-19T18:06:07.623Z,3.13
2018-04-19T18:08:34.497Z,5.53
2018-04-19T18:11:01.372Z,3.03
2018-04-19T18:13:29.060Z,3.70
2018-04-19T18:15:56.014Z,4.00
2018-04-19T18:18:22.952Z,5.70
2018-04-19T18:20:49.814Z,3.73
2018-04-19T18:23:16.809Z,5.00
2018-04-19T18:25:43.742Z,4.03
2018-04-19T18:28:10.713Z,4.63
2018-04-19T18:30:38.318Z,3.70
2018-04-19T18:33:05.186Z,4.30
2018-04-19T18:35:32.143Z,4.10
2018-04-19T18:37:59.043Z,4.40
2018-04-19T18:40:25.985Z,3.87
2018-04-19T18:42:52.880Z,3.77
2018-04-19T18:45:21.105Z,4.17
2018-04-19T18:47:49.161Z,4.90
2018-04-19T18:50:16.125Z,3.90
2018-04-19T18:52:42.994Z,5.13
2018-04-19T18:55:09.857Z,6.43
2018-04-19T18:57:36.790Z,9.53
2018-04-19T19:00:03.712Z,9.00
2018-04-19T19:02:30.772Z,8.03
2018-04-19T19:04:57.650Z,4.90
2018-04-19T19:07:24.710Z,9.40
2018-04-19T19:09:55.434Z,4.70
2018-04-19T19:12:36.594Z,4.73
2018-04-19T19:15:37.477Z,7.77
2018-04-19T19:18:27.087Z,6.60
2018-04-19T19:21:06.923Z,6.03
2018-04-19T19:23:48.977Z,6.63
2018-04-19T19:26:30.026Z,5.33
2018-04-19T19:29:12.842Z,6.50
2018-04-19T19:31:56.683Z,7.10
2018-04-19T19:34:39.070Z,7.83
2018-04-19T19:37:21.383Z,6.20
2018-04-19T19:40:04.283Z,8.93
2018-04-19T19:42:44.313Z,10.27
2018-04-19T19:45:25.689Z,8.53
2018-04-19T19:48:08.201Z,6.30
2018-04-19T19:50:50.868Z,6.07
2018-04-19T19:53:34.166Z,5.57
2018-04-19T19:56:16.611Z,6.47
2018-04-19T19:58:58.697Z,5.63
2018-04-19T20:01:40.337Z,7.07
2018-04-19T20:04:21.604Z,6.60
2018-04-19T20:06:49.420Z,5.87
2018-04-19T20:09:17.090Z,7.43
2018-04-19T20:11:45.203Z,8.07
2018-04-19T20:14:12.078Z,5.93
2018-04-19T20:19:29.886Z,7.20
2018-04-19T20:22:11.177Z,8.43
2018-04-19T20:24:52.267Z,5.20
2018-04-19T20:27:34.597Z,6.13
2018-04-19T20:30:17.353Z,6.00
2018-04-19T20:32:59.425Z,6.03
2018-04-19T20:35:39.028Z,7.07
2018-04-19T20:38:20.301Z,5.90
2018-04-19T20:41:02.740Z,6.67
2018-04-19T20:43:44.424Z,7.07
2018-04-19T20:46:25.267Z,10.80
2018-04-19T20:49:06.406Z,6.50
2018-04-19T20:51:47.714Z,7.07
2018-04-19T20:54:29.159Z,6.80
2018-04-19T20:57:10.374Z,22.77
2018-04-19T20:59:49.937Z,20.87
2018-04-19T21:02:32.522Z,11.73
2018-04-19T21:05:13.960Z,10.10
2018-04-19T21:07:55.663Z,6.57
2018-04-19T21:10:39.637Z,7.63
2018-04-19T21:13:21.719Z,8.17
2018-04-19T21:16:03.137Z,6.40
2018-04-19T21:18:45.421Z,6.50
2018-04-19T21:21:26.297Z,6.40
2018-04-19T21:26:51.145Z,6.27
2018-04-19T21:29:37.127Z,6.80
2018-04-19T21:32:17.892Z,7.07
2018-04-19T21:34:59.242Z,6.10
2018-04-19T21:37:38.825Z,6.37
2018-04-19T21:43:06.772Z,6.23
2018-04-19T21:48:34.482Z,5.67
2018-04-19T21:51:02.448Z,6.30
2018-04-19T21:53:29.360Z,5.40
2018-04-19T21:55:57.998Z,6.43
2018-04-19T21:58:25.707Z,6.03
2018-04-19T22:00:52.654Z,6.63
2018-04-19T22:03:19.623Z,8.10
2018-04-19T22:05:46.574Z,6.17
2018-04-19T22:08:13.449Z,5.80
2018-04-19T22:10:40.370Z,9.97
2018-04-19T22:13:07.234Z,7.90
2018-04-19T22:15:34.942Z,7.17
2018-04-19T22:18:01.810Z,7.33
2018-04-19T22:20:28.738Z,7.37
2018-04-19T22:22:55.735Z,6.83
2018-04-19T22:25:23.353Z,6.83
2018-04-19T22:27:50.217Z,6.90
2018-04-19T22:30:17.154Z,7.00
2018-04-19T22:32:44.018Z,6.80
2018-04-19T22:35:10.970Z,6.70
2018-04-19T22:37:37.830Z,7.10
2018-04-19T22:40:04.701Z,6.80
2018-04-19T22:42:31.682Z,7.10
2018-04-19T22:44:58.560Z,11.13
2018-04-19T22:47:26.194Z,7.17
2018-04-19T22:49:53.196Z,7.57
2018-04-19T22:52:20.077Z,7.33
2018-04-19T22:54:46.944Z,7.13
2018-04-19T22:57:13.888Z,5.90
2018-04-19T22:59:40.747Z,6.50
2018-04-19T23:02:08.417Z,7.20
2018-04-19T23:04:36.001Z,7.70
2018-04-19T23:07:02.958Z,7.40
2018-04-19T23:09:29.822Z,6.70
2018-04-19T23:11:56.826Z,7.40
2018-04-19T23:14:23.706Z,8.67
2018-04-19T23:16:50.608Z,8.03
2018-04-19T23:19:17.549Z,10.10
2018-04-19T23:21:45.209Z,10.43
2018-04-19T23:24:12.878Z,7.83
2018-04-19T23:26:40.557Z,7.77
2018-04-19T23:29:07.415Z,12.83
2018-04-19T23:31:34.353Z,8.20
2018-04-19T23:34:01.302Z,8.23
2018-04-19T23:36:28.252Z,9.33
2018-04-19T23:38:55.185Z,8.20
2018-04-19T23:41:22.131Z,8.63
2018-04-19T23:43:49.086Z,8.47
2018-04-19T23:46:16.028Z,8.67
2018-04-19T23:48:42.903Z,8.93
2018-04-19T23:51:09.845Z,11.83
2018-04-19T23:53:36.785Z,8.90
2018-04-19T23:56:03.737Z,12.23
2018-04-19T23:58:30.610Z,9.83
